Time;durP1;ratioP1;P1;durP2;ratioP2;P2;SDS_P1;SDS_P2;PMS_P1;PMS_P2;Temp;Humidity;BMP_temperature;BMP_pressure;BME280_temperature;BME280_humidity;BME280_pressure;Samples;Min_cycle;Max_cycle;Signal;HPM_P1;HPM_P2
2021/01/12 00:01:55;;;;;;;15.03;8.50;;;;;;;-6.87;82.65;93053.14;1773370;79;21172;-75
2021/01/12 00:04:22;;;;;;;14.97;8.60;;;;;;;-6.87;82.38;93052.59;1815900;78;21171;-75
2021/01/12 00:06:50;;;;;;;11.93;8.00;;;;;;;-6.89;82.05;93049.99;1745138;82;21760;-73
2021/01/12 00:09:18;;;;;;;15.83;8.83;;;;;;;-6.91;82.23;93051.63;1774030;80;21197;-74
2021/01/12 00:11:46;;;;;;;12.97;7.00;;;;;;;-6.94;82.36;93050.89;1771624;80;21722;-74
2021/01/12 00:14:32;;;;;;;14.37;8.87;;;;;;;-6.98;82.55;93046.48;1800727;77;21230;-74
2021/01/12 00:17:02;;;;;;;18.13;10.07;;;;;;;-7.02;82.57;93046.84;1743829;82;21174;-75
2021/01/12 00:19:31;;;;;;;20.87;10.90;;;;;;;-7.04;82.71;93043.69;1775957;80;21092;-74
2021/01/12 00:21:59;;;;;;;14.93;9.03;;;;;;;-7.04;82.76;93056.36;1745441;81;22127;-74
2021/01/12 00:24:27;;;;;;;16.17;10.10;;;;;;;-7.04;82.70;93044.47;1776133;80;21116;-74
2021/01/12 00:26:54;;;;;;;17.70;9.73;;;;;;;-7.01;82.68;93041.78;1745251;81;21160;-74
2021/01/12 00:29:22;;;;;;;19.50;10.70;;;;;;;-6.97;82.61;93046.18;1776620;80;21119;-73
2021/01/12 00:31:49;;;;;;;16.60;10.00;;;;;;;-6.99;82.42;93045.71;1745361;81;21401;-74
2021/01/12 00:34:17;;;;;;;15.07;9.23;;;;;;;-7.02;82.43;93037.59;1775583;80;21197;-74
2021/01/12 00:39:20;;;;;;;17.75;7.95;;;;;;;-7.08;82.45;93044.81;1775381;80;21203;-75
2021/01/12 00:41:55;;;;;;;17.60;10.27;;;;;;;-7.18;82.42;93044.49;1769670;80;21181;-74
2021/01/12 00:44:23;;;;;;;14.27;7.27;;;;;;;-7.26;82.61;93037.23;1790386;79;21211;-74
2021/01/12 00:46:51;;;;;;;18.83;10.70;;;;;;;-7.25;83.00;93038.03;1744675;82;21809;-75
2021/01/12 00:49:21;;;;;;;18.53;9.93;;;;;;;-7.33;83.48;93040.83;1776303;80;21291;-73
2021/01/12 00:51:48;;;;;;;20.73;11.77;;;;;;;-7.30;83.79;93039.44;1744461;82;21749;-76
2021/01/12 00:54:18;;;;;;;23.90;13.13;;;;;;;-7.27;83.90;93037.53;1775498;80;21416;-74
2021/01/12 00:56:50;;;;;;;35.37;18.53;;;;;;;-7.25;84.13;93034.08;1803337;78;21174;-74
2021/01/12 00:59:18;;;;;;;44.47;23.47;;;;;;;-7.21;84.08;93039.79;1796634;78;21651;-73
2021/01/12 01:01:46;;;;;;;33.97;17.00;;;;;;;-7.22;84.02;93034.27;1769777;78;21182;-75
2021/01/12 01:04:15;;;;;;;17.50;9.83;;;;;;;-7.23;84.06;93037.19;1788471;79;21147;-74
2021/01/12 01:06:43;;;;;;;13.27;8.83;;;;;;;-7.32;84.30;93023.89;1714642;83;21517;-74
2021/01/12 01:09:11;;;;;;;11.40;6.77;;;;;;;-7.38;84.31;93021.86;1774680;80;21160;-74
2021/01/12 01:11:43;;;;;;;11.37;6.93;;;;;;;-7.47;84.56;93020.22;1746099;82;21219;-74
2021/01/12 01:14:10;;;;;;;14.03;7.83;;;;;;;-7.50;85.03;93016.29;1758652;80;21185;-73
2021/01/12 01:16:39;;;;;;;15.10;8.53;;;;;;;-7.50;85.30;93014.19;1784151;79;21167;-75
2021/01/12 01:19:07;;;;;;;9.47;5.97;;;;;;;-7.47;85.62;93017.03;1811693;79;21147;-75
2021/01/12 01:21:39;;;;;;;18.57;10.03;;;;;;;-7.41;85.96;93007.14;1757204;81;21156;-75
2021/01/12 01:24:09;;;;;;;12.17;7.03;;;;;;;-7.36;85.98;93004.42;1742805;82;21473;-75
2021/01/12 01:26:38;;;;;;;14.07;8.27;;;;;;;-7.28;85.86;93005.59;1745334;82;21107;-73
2021/01/12 01:29:06;;;;;;;18.73;10.50;;;;;;;-7.24;85.82;93002.60;1775930;80;21114;-75
2021/01/12 01:31:35;;;;;;;20.83;12.63;;;;;;;-7.20;85.88;93006.22;1780918;79;21271;-76
2021/01/12 01:34:03;;;;;;;15.53;9.13;;;;;;;-7.13;86.05;93002.64;1823926;78;21175;-76
2021/01/12 01:36:31;;;;;;;17.23;10.60;;;;;;;-7.06;85.96;93005.67;1745954;80;22643;-76
2021/01/12 01:38:58;;;;;;;17.03;8.97;;;;;;;-6.97;86.21;93001.79;1771047;80;21497;-76
2021/01/12 01:41:26;;;;;;;15.67;8.30;;;;;;;-6.85;86.33;92992.80;1756049;80;21191;-75
2021/01/12 01:43:53;;;;;;;26.23;12.37;;;;;;;-6.74;86.24;92993.37;1712038;83;22150;-73
2021/01/12 01:46:21;;;;;;;18.53;10.53;;;;;;;-6.66;85.99;92988.15;1756065;80;21180;-74
2021/01/12 01:48:48;;;;;;;20.80;11.70;;;;;;;-6.56;85.75;92989.80;1797782;79;21210;-73
2021/01/12 01:51:16;;;;;;;14.77;8.90;;;;;;;-6.47;85.59;92991.98;1785402;78;21203;-75
2021/01/12 01:53:43;;;;;;;19.00;10.27;;;;;;;-6.39;85.53;92995.23;1743107;82;21207;-73
2021/01/12 01:56:11;;;;;;;22.53;11.10;;;;;;;-6.31;85.59;92997.70;1774922;80;21246;-76
2021/01/12 01:58:40;;;;;;;20.80;11.13;;;;;;;-6.23;85.31;92993.01;1718247;82;21478;-73
2021/01/12 02:01:11;;;;;;;35.00;15.87;;;;;;;-6.20;84.65;92995.61;1775968;80;21259;-73
2021/01/12 02:03:50;;;;;;;21.20;11.20;;;;;;;-6.23;84.13;92997.52;1745179;81;21204;-74
2021/01/12 02:06:25;;;;;;;15.63;9.13;;;;;;;-6.27;84.36;92989.41;1775974;80;21183;-73
2021/01/12 02:09:09;;;;;;;20.83;12.03;;;;;;;-6.25;84.71;92997.81;1764223;80;21199;-74
2021/01/12 02:11:42;;;;;;;23.70;13.32;;;;;;;-6.24;84.45;92982.19;1810268;77;21191;-75
2021/01/12 02:14:14;;;;;;;24.70;10.90;;;;;;;-6.19;84.84;92981.28;1744462;80;21172;-75
2021/01/12 02:16:45;;;;;;;21.73;12.37;;;;;;;-6.15;85.18;92977.73;1775802;80;21167;-73
2021/01/12 02:19:17;;;;;;;20.50;10.90;;;;;;;-6.06;85.08;92972.48;1744926;82;21220;-73
2021/01/12 02:21:53;;;;;;;22.50;11.57;;;;;;;-6.01;85.13;92967.63;1774571;80;21199;-74
2021/01/12 02:24:21;;;;;;;20.13;11.80;;;;;;;-5.92;85.25;92972.41;1744270;82;21201;-74
2021/01/12 02:26:48;;;;;;;21.60;12.27;;;;;;;-5.82;85.09;92966.06;1775308;80;21651;-75
2021/01/12 02:29:16;;;;;;;19.63;10.17;;;;;;;-5.76;85.17;92962.17;1767359;78;21183;-74
2021/01/12 02:31:43;;;;;;;22.20;11.27;;;;;;;-5.73;84.58;92958.92;1817181;78;21163;-74
2021/01/12 02:34:15;;;;;;;20.30;11.00;;;;;;;-5.72;84.42;92963.12;1745736;81;21226;-73
2021/01/12 02:36:43;;;;;;;16.43;9.03;;;;;;;-5.73;84.65;92951.76;1790014;79;21145;-74
2021/01/12 02:39:14;;;;;;;23.60;12.50;;;;;;;-5.69;84.50;92963.84;1749284;80;21417;-75
2021/01/12 02:41:41;;;;;;;20.10;11.10;;;;;;;-5.74;84.15;92940.93;1765236;80;21184;-74
2021/01/12 02:44:21;;;;;;;23.73;12.73;;;;;;;-5.72;85.02;92939.29;1830722;76;21209;-73
2021/01/12 02:46:50;;;;;;;27.77;14.27;;;;;;;-5.73;83.71;92951.76;1779833;80;21209;-74
2021/01/12 02:49:17;;;;;;;26.77;13.07;;;;;;;-5.81;82.78;92928.67;1777045;79;21161;-74
2021/01/12 02:51:45;;;;;;;29.20;15.13;;;;;;;-5.88;83.89;92944.21;1744991;81;22734;-76
2021/01/12 02:54:12;;;;;;;24.30;13.43;;;;;;;-5.94;84.00;92936.98;1770371;80;21199;-76
2021/01/12 02:56:40;;;;;;;26.73;14.33;;;;;;;-6.01;84.03;92934.53;1757949;80;21168;-74
2021/01/12 02:59:07;;;;;;;28.00;14.60;;;;;;;-6.01;83.94;92930.56;1787184;79;21258;-74
2021/01/12 03:01:35;;;;;;;33.47;17.07;;;;;;;-6.08;83.05;92926.23;1798861;79;21158;-75
2021/01/12 03:04:03;;;;;;;25.73;13.40;;;;;;;-6.16;83.47;92923.78;1806536;78;21674;-73
2021/01/12 03:06:33;;;;;;;25.37;13.37;;;;;;;-6.20;83.59;92926.25;1750742;78;21224;-76
2021/01/12 03:09:00;;;;;;;28.13;15.20;;;;;;;-6.22;84.10;92923.66;1762060;81;21184;-75
2021/01/12 03:11:28;;;;;;;33.80;17.20;;;;;;;-6.20;84.67;92929.44;1799660;79;21227;-74
2021/01/12 03:13:57;;;;;;;30.90;15.80;;;;;;;-6.20;83.99;92920.18;1751757;81;21201;-75
2021/01/12 03:16:25;;;;;;;35.10;17.27;;;;;;;-6.19;84.22;92918.55;1783287;80;21657;-75
2021/01/12 03:18:53;;;;;;;27.03;14.57;;;;;;;-6.26;82.86;92911.57;1778212;80;21550;-75
2021/01/12 03:21:21;;;;;;;31.73;17.37;;;;;;;-6.34;82.59;92918.14;1730393;80;21118;-75
2021/01/12 03:23:48;;;;;;;28.23;15.20;;;;;;;-6.39;83.40;92917.19;1743937;82;21478;-74
2021/01/12 03:26:21;;;;;;;24.97;13.50;;;;;;;-6.41;82.88;92911.40;1749684;80;21299;-74
2021/01/12 03:28:49;;;;;;;28.30;16.03;;;;;;;-6.42;83.22;92917.78;1787230;78;21176;-77
2021/01/12 03:31:16;;;;;;;25.67;14.10;;;;;;;-6.43;83.58;92912.77;1776526;79;21267;-76
2021/01/12 03:33:44;;;;;;;24.87;13.43;;;;;;;-6.42;83.80;92907.75;1773023;79;21143;-75
2021/01/12 03:36:12;;;;;;;28.00;14.63;;;;;;;-6.39;84.34;92915.08;1773104;79;21162;-74
2021/01/12 03:38:39;;;;;;;21.30;12.30;;;;;;;-6.42;83.83;92912.49;1817333;78;21143;-74
2021/01/12 03:41:07;;;;;;;22.50;13.33;;;;;;;-6.42;84.22;92910.39;1808878;78;21626;-75
2021/01/12 03:43:34;;;;;;;27.17;14.63;;;;;;;-6.40;84.10;92914.82;1821608;78;21178;-73
2021/01/12 03:46:03;;;;;;;25.40;13.27;;;;;;;-6.38;83.80;92904.73;1785861;78;21207;-75
2021/01/12 03:48:31;;;;;;;25.13;14.03;;;;;;;-6.38;83.87;92903.41;1779448;79;21684;-77
2021/01/12 03:50:58;;;;;;;24.33;13.87;;;;;;;-6.38;83.84;92903.41;1794267;79;21207;-74
2021/01/12 03:53:26;;;;;;;23.77;12.67;;;;;;;-6.37;83.95;92903.09;1787833;78;22337;-75
2021/01/12 03:55:53;;;;;;;22.80;13.50;;;;;;;-6.35;83.97;92905.46;1831947;78;21169;-73
2021/01/12 03:58:21;;;;;;;27.73;14.83;;;;;;;-6.33;84.53;92903.82;1830903;78;21149;-72
2021/01/12 04:00:48;;;;;;;24.37;11.83;;;;;;;-6.26;85.16;92899.66;1832691;78;21180;-74
2021/01/12 04:03:16;;;;;;;24.90;13.17;;;;;;;-6.20;85.30;92895.81;1833096;77;21169;-75
2021/01/12 04:05:43;;;;;;;31.43;17.13;;;;;;;-6.11;85.60;92900.59;1842433;76;21348;-74
2021/01/12 04:08:11;;;;;;;35.53;16.57;;;;;;;-6.02;85.25;92889.27;1871471;76;21188;-74
2021/01/12 04:10:38;;;;;;;25.83;14.07;;;;;;;-5.97;84.71;92891.25;1843304;77;21183;-74
2021/01/12 04:13:06;;;;;;;23.40;13.07;;;;;;;-5.97;84.05;92888.61;1814167;78;21728;-75
2021/01/12 04:15:34;;;;;;;21.87;12.17;;;;;;;-5.97;83.91;92888.61;1804079;78;21520;-75
2021/01/12 04:18:02;;;;;;;19.57;11.30;;;;;;;-5.96;84.36;92882.77;1805520;78;21732;-74
2021/01/12 04:20:30;;;;;;;18.50;11.30;;;;;;;-5.91;84.72;92888.66;1836750;78;21129;-74
2021/01/12 04:22:58;;;;;;;30.63;15.70;;;;;;;-5.85;85.26;92884.03;1784934;80;21081;-75
2021/01/12 04:25:25;;;;;;;28.67;14.57;;;;;;;-5.75;85.03;92885.63;1818577;78;21083;-75
2021/01/12 04:27:53;;;;;;;35.73;18.37;;;;;;;-5.71;85.08;92893.20;1819396;78;21097;-75
2021/01/12 04:30:21;;;;;;;26.77;15.60;;;;;;;-5.66;84.68;92881.91;1817872;78;21635;-76
2021/01/12 04:32:49;;;;;;;35.63;17.27;;;;;;;-5.63;84.53;92883.17;1817505;78;21185;-74
2021/01/12 04:35:17;;;;;;;82.27;32.67;;;;;;;-5.58;84.37;92880.92;1818451;78;21477;-76
2021/01/12 04:37:45;;;;;;;29.03;15.20;;;;;;;-5.51;84.32;92880.70;1789519;78;21614;-74
2021/01/12 04:40:13;;;;;;;32.20;18.10;;;;;;;-5.43;84.29;92877.29;1814166;78;21206;-76
2021/01/12 04:42:42;;;;;;;40.53;21.60;;;;;;;-5.39;83.29;92876.91;1841962;77;21414;-75
2021/01/12 04:45:10;;;;;;;45.07;20.47;;;;;;;-5.39;83.31;92873.48;1775584;79;21733;-75
2021/01/12 04:47:38;;;;;;;52.43;24.63;;;;;;;-5.38;83.44;92870.54;1803374;79;21183;-75
2021/01/12 04:50:06;;;;;;;35.23;15.37;;;;;;;-5.33;83.78;92866.95;1788749;80;21156;-76
2021/01/12 04:52:48;;;;;;;30.37;15.77;;;;;;;-5.30;83.48;92868.99;1804145;79;21175;-76
2021/01/12 04:55:17;;;;;;;25.90;13.93;;;;;;;-5.37;82.14;92864.14;1805833;79;22735;-78
2021/01/12 04:57:45;;;;;;;41.33;22.43;;;;;;;-5.44;82.80;92854.54;1806277;79;21720;-74
2021/01/12 05:00:25;;;;;;;26.33;14.67;;;;;;;-5.45;82.89;92850.34;1820502;77;21165;-76
2021/01/12 05:03:03;;;;;;;36.23;17.33;;;;;;;-5.45;83.38;92854.86;1808351;78;21454;-75
2021/01/12 05:05:35;;;;;;;27.00;14.03;;;;;;;-5.43;84.71;92850.02;1809475;78;21179;-75
2021/01/12 05:08:07;;;;;;;22.00;12.17;;;;;;;-5.45;82.91;92861.48;1789047;78;21192;-78
2021/01/12 05:10:40;;;;;;;24.67;13.50;;;;;;;-5.58;82.82;92845.93;1810563;78;21154;-78
2021/01/12 05:13:14;;;;;;;25.97;12.77;;;;;;;-5.62;83.53;92847.09;1812997;77;21167;-74
2021/01/12 05:15:43;;;;;;;26.40;14.03;;;;;;;-5.58;84.51;92843.83;1791521;79;21178;-74
2021/01/12 05:18:11;;;;;;;26.77;15.73;;;;;;;-5.52;84.66;92843.94;1808011;78;21215;-74
2021/01/12 05:20:44;;;;;;;23.83;13.77;;;;;;;-5.50;83.83;92833.24;1803940;78;21650;-74
2021/01/12 05:23:14;;;;;;;28.13;17.27;;;;;;;-5.51;83.57;92839.64;1836061;78;21187;-74
2021/01/12 05:25:41;;;;;;;32.13;17.20;;;;;;;-5.53;83.26;92829.88;1844804;77;21173;-76
2021/01/12 05:28:11;;;;;;;30.57;16.37;;;;;;;-5.55;83.50;92827.33;1779438;79;21075;-75
2021/01/12 05:30:39;;;;;;;37.53;20.20;;;;;;;-5.56;83.42;92811.20;1834703;77;21638;-74
2021/01/12 05:33:07;;;;;;;36.93;20.17;;;;;;;-5.52;83.58;92817.44;1801604;78;21639;-77
2021/01/12 05:35:36;;;;;;;30.87;16.47;;;;;;;-5.54;83.76;92816.41;1836492;78;21989;-77
2021/01/12 05:38:08;;;;;;;24.67;15.17;;;;;;;-5.57;83.29;92813.59;1838390;78;21186;-76
2021/01/12 05:40:42;;;;;;;26.37;14.73;;;;;;;-5.65;83.79;92814.59;1832062;76;21195;-75
2021/01/12 05:43:14;;;;;;;29.13;15.07;;;;;;;-5.63;83.81;92811.10;1822003;78;21198;-79
2021/01/12 05:45:43;;;;;;;35.33;19.13;;;;;;;-5.62;83.86;92813.98;1811037;77;21825;-76
2021/01/12 05:48:11;;;;;;;39.00;19.03;;;;;;;-5.59;83.81;92810.49;1836619;77;21203;-75
2021/01/12 05:50:40;;;;;;;38.90;20.80;;;;;;;-5.58;83.39;92814.14;1808584;79;21166;-75
2021/01/12 05:53:21;;;;;;;37.00;18.83;;;;;;;-5.63;83.21;92804.48;1841802;77;21151;-75
2021/01/12 05:55:55;;;;;;;39.50;19.37;;;;;;;-5.62;83.28;92802.06;1813759;77;21201;-75
2021/01/12 05:58:31;;;;;;;36.20;18.47;;;;;;;-5.68;83.22;92800.66;1830321;76;21350;-77
2021/01/12 06:01:02;;;;;;;35.10;19.23;;;;;;;-5.74;83.46;92795.27;1794560;79;21175;-75
2021/01/12 06:03:32;;;;;;;36.63;19.57;;;;;;;-5.77;83.58;92801.72;1799916;79;21230;-75
2021/01/12 06:06:01;;;;;;;35.93;19.10;;;;;;;-5.82;83.24;92802.66;1818107;78;21182;-75
2021/01/12 06:08:29;;;;;;;34.57;18.20;;;;;;;-5.87;83.59;92804.10;1802917;78;21594;-77
2021/01/12 06:10:57;;;;;;;22.53;14.10;;;;;;;-5.86;84.55;92806.45;1823523;78;21721;-77
2021/01/12 06:13:24;;;;;;;38.07;17.73;;;;;;;-5.78;85.49;92802.82;1769134;79;21226;-76
2021/01/12 06:15:52;;;;;;;33.27;15.63;;;;;;;-5.65;85.63;92794.72;1741091;78;21154;-78
2021/01/12 06:18:20;;;;;;;48.07;23.97;;;;;;;-5.59;85.02;92798.02;1795322;78;21149;-75
2021/01/12 06:20:53;;;;;;;31.97;17.97;;;;;;;-5.57;84.71;92795.83;1802273;79;21174;-77
2021/01/12 06:23:48;;;;;;;38.07;20.10;;;;;;;-5.53;85.18;92798.09;1831091;78;21355;-76
2021/01/12 06:26:16;;;;;;;30.08;17.20;;;;;;;-5.44;85.59;92788.84;1809658;79;21697;-77
2021/01/12 06:28:43;;;;;;;34.13;19.23;;;;;;;-5.35;84.92;92788.84;1809556;79;21131;-75
2021/01/12 06:31:11;;;;;;;36.30;20.07;;;;;;;-5.31;84.89;92791.10;1814307;77;21122;-76
2021/01/12 06:33:39;;;;;;;40.33;20.93;;;;;;;-5.27;84.71;92788.06;1792931;78;21530;-77
2021/01/12 06:36:07;;;;;;;30.43;18.53;;;;;;;-5.24;84.92;92783.47;1807214;79;21423;-77
2021/01/12 06:38:38;;;;;;;38.00;19.33;;;;;;;-5.19;85.17;92782.78;1761479;80;21118;-75
2021/01/12 06:41:08;;;;;;;38.20;19.10;;;;;;;-5.10;85.47;92792.59;1825166;78;21127;-76
2021/01/12 06:43:35;;;;;;;41.43;22.13;;;;;;;-5.03;85.48;92785.73;1805422;78;21654;-77
2021/01/12 06:46:03;;;;;;;34.63;20.37;;;;;;;-4.99;84.71;92792.52;1792016;79;21619;-73
2021/01/12 06:48:32;;;;;;;33.13;19.10;;;;;;;-4.98;84.24;92797.49;1735374;79;21522;-78
2021/01/12 06:51:02;;;;;;;39.17;20.97;;;;;;;-5.01;84.12;92798.11;1736403;80;21243;-76
2021/01/12 06:53:30;;;;;;;34.97;19.93;;;;;;;-5.02;84.41;92801.09;1783455;80;21143;-77
2021/01/12 06:56:07;;;;;;;46.83;27.70;;;;;;;-5.00;84.11;92801.02;1766882;78;21177;-77
2021/01/12 06:58:35;;;;;;;39.07;21.43;;;;;;;-5.00;83.52;92793.59;1829337;77;21180;-76
2021/01/12 07:01:02;;;;;;;40.53;21.27;;;;;;;-5.04;83.13;92792.13;1824944;77;21249;-76
2021/01/12 07:03:32;;;;;;;30.17;16.40;;;;;;;-5.10;83.34;92792.05;1841281;77;21636;-79
2021/01/12 07:06:03;;;;;;;30.90;18.03;;;;;;;-5.07;83.92;92801.26;1812149;79;21155;-77
2021/01/12 07:08:31;;;;;;;33.43;17.20;;;;;;;-5.05;84.10;92787.12;1804172;79;21138;-77
2021/01/12 07:11:03;;;;;;;41.33;21.67;;;;;;;-4.99;84.80;92793.84;1745244;78;21087;-76
2021/01/12 07:13:39;;;;;;;31.17;16.03;;;;;;;-4.93;84.11;92782.77;1807808;79;21949;-77
2021/01/12 07:16:14;;;;;;;38.63;20.03;;;;;;;-4.93;84.87;92777.46;1784293;80;21139;-77
2021/01/12 07:18:58;;;;;;;44.63;23.70;;;;;;;-4.82;84.87;92791.70;1792257;78;22320;-78
2021/01/12 07:21:31;;;;;;;29.83;16.57;;;;;;;-4.79;84.12;92781.25;1816257;76;21225;-78
2021/01/12 07:24:02;;;;;;;36.13;21.03;;;;;;;-4.75;84.72;92779.52;1848145;77;21187;-77
2021/01/12 07:26:31;;;;;;;39.67;19.50;;;;;;;-4.69;84.49;92776.95;1793258;78;21359;-77
2021/01/12 07:29:05;;;;;;;42.87;24.67;;;;;;;-4.62;84.47;92786.31;1779285;79;21452;-78
2021/01/12 07:31:33;;;;;;;34.13;19.73;;;;;;;-4.58;83.94;92777.95;1806659;79;21125;-77
2021/01/12 07:34:01;;;;;;;47.97;25.73;;;;;;;-4.52;84.06;92784.63;1806483;79;21121;-76
2021/01/12 07:36:33;;;;;;;49.47;25.57;;;;;;;-4.46;83.89;92782.81;1805579;79;21085;-78
2021/01/12 07:39:01;;;;;;;44.63;24.80;;;;;;;-4.41;83.53;92776.55;1805913;79;21442;-77
2021/01/12 07:41:29;;;;;;;44.50;23.73;;;;;;;-4.41;83.06;92768.59;1832474;78;21119;-79
2021/01/12 07:43:56;;;;;;;43.47;23.37;;;;;;;-4.42;83.20;92777.11;1795291;78;21135;-76
2021/01/12 07:46:24;;;;;;;30.83;18.10;;;;;;;-4.39;82.99;92779.68;1803662;79;21453;-77
2021/01/12 07:48:53;;;;;;;28.70;17.30;;;;;;;-4.32;83.81;92777.32;1789324;79;21920;-76
2021/01/12 07:51:21;;;;;;;52.27;27.73;;;;;;;-4.14;84.07;92772.70;1779489;79;21455;-79
2021/01/12 07:53:49;;;;;;;52.63;29.90;;;;;;;-4.03;82.29;92771.80;1806757;79;21182;-77
2021/01/12 07:56:17;;;;;;;50.17;26.67;;;;;;;-4.02;81.60;92764.09;1787832;78;21661;-76
2021/01/12 07:58:44;;;;;;;47.37;26.70;;;;;;;-4.04;81.73;92768.37;1784759;79;21176;-78
2021/01/12 08:01:12;;;;;;;53.03;29.13;;;;;;;-4.06;82.39;92774.56;1808025;78;21220;-77
2021/01/12 08:03:41;;;;;;;57.00;30.63;;;;;;;-4.03;82.20;92773.13;1816315;77;22238;-78
2021/01/12 08:06:09;;;;;;;35.97;21.07;;;;;;;-3.98;82.34;92771.09;1765391;80;21183;-79
2021/01/12 08:08:36;;;;;;;39.23;22.43;;;;;;;-3.88;82.95;92754.55;1825627;77;21406;-80
2021/01/12 08:11:05;;;;;;;63.23;35.47;;;;;;;-3.77;83.27;92757.84;1776548;79;21178;-79
2021/01/12 08:13:32;;;;;;;60.77;30.40;;;;;;;-3.64;82.76;92753.41;1796969;78;21151;-79
2021/01/12 08:16:00;;;;;;;34.93;19.03;;;;;;;-3.55;82.06;92755.99;1804575;77;22561;-80
2021/01/12 08:18:29;;;;;;;30.10;17.20;;;;;;;-3.53;82.28;92753.80;1723615;80;21211;-80
2021/01/12 08:20:57;;;;;;;29.80;16.10;;;;;;;-3.51;82.78;92753.69;1782980;79;21377;-80
2021/01/12 08:23:25;;;;;;;30.20;17.97;;;;;;;-3.42;82.86;92741.13;1820885;77;21393;-79
2021/01/12 08:25:53;;;;;;;43.43;24.60;;;;;;;-3.28;82.69;92741.41;1795584;78;21219;-80
2021/01/12 08:28:21;;;;;;;36.70;21.50;;;;;;;-3.21;82.19;92740.34;1782598;80;21373;-79
2021/01/12 08:30:48;;;;;;;46.67;23.83;;;;;;;-3.15;82.14;92731.63;1818612;77;21187;-79
2021/01/12 08:33:38;;;;;;;37.37;20.00;;;;;;;-3.10;81.87;92732.74;1817598;78;21442;-77
2021/01/12 08:36:15;;;;;;;39.80;22.47;;;;;;;-3.07;81.52;92727.55;1802446;79;21492;-78
2021/01/12 08:38:44;;;;;;;38.10;22.00;;;;;;;-3.00;81.49;92726.47;1808067;79;22024;-76
2021/01/12 08:41:12;;;;;;;40.97;22.27;;;;;;;-2.91;81.29;92729.60;1814294;77;21577;-76
2021/01/12 08:43:40;;;;;;;37.77;20.60;;;;;;;-2.86;80.92;92728.83;1864875;76;21134;-77
2021/01/12 08:46:10;;;;;;;45.33;23.43;;;;;;;-2.86;80.44;92726.73;1823220;77;21677;-78
2021/01/12 08:48:42;;;;;;;34.10;19.20;;;;;;;-2.89;80.28;92726.84;1837471;78;21448;-76
2021/01/12 08:51:15;;;;;;;37.57;22.30;;;;;;;-2.88;80.88;92721.74;1804953;79;21211;-77
2021/01/12 08:53:49;;;;;;;38.77;20.90;;;;;;;-2.82;80.79;92713.80;1786642;78;21811;-77
2021/01/12 08:56:16;;;;;;;33.23;20.27;;;;;;;-2.73;80.86;92718.46;1791429;78;21186;-78
2021/01/12 08:58:44;;;;;;;35.97;20.33;;;;;;;-2.63;80.94;92712.48;1825874;78;21186;-77
2021/01/12 09:01:14;;;;;;;27.93;16.63;;;;;;;-2.52;80.97;92712.28;1790190;78;21576;-77
2021/01/12 09:03:42;;;;;;;33.13;16.57;;;;;;;-2.39;80.95;92711.20;1798079;77;21166;-78
2021/01/12 09:06:27;;;;;;;20.13;10.63;;;;;;;-2.28;80.51;92706.23;1838575;77;21377;-77
2021/01/12 09:09:12;;;;;;;21.80;13.20;;;;;;;-2.17;80.55;92703.91;1800765;79;21658;-76
2021/01/12 09:11:47;;;;;;;22.30;13.47;;;;;;;-2.04;80.34;92702.78;1856681;76;21068;-77
2021/01/12 09:14:19;;;;;;;;;;;;;;;-1.96;79.96;92700.03;1845473;77;21413;-78
2021/01/12 09:16:47;;;;;;;20.30;11.63;;;;;;;-1.91;79.94;92699.58;1818645;78;20284;-77
2021/01/12 09:19:17;;;;;;;18.20;9.63;;;;;;;-1.83;79.90;92701.34;1818632;76;21702;-78
2021/01/12 09:21:45;;;;;;;13.87;7.60;;;;;;;-1.78;79.71;92699.22;1776099;80;21136;-76
2021/01/12 09:24:17;;;;;;;15.20;9.17;;;;;;;-1.71;79.40;92699.43;1835929;77;21112;-78
2021/01/12 09:26:45;;;;;;;15.50;8.50;;;;;;;-1.62;79.00;92690.53;1773833;78;21607;-78
2021/01/12 09:29:13;;;;;;;16.07;9.43;;;;;;;-1.53;78.87;92688.53;1848474;76;21089;-78
2021/01/12 09:31:46;;;;;;;12.60;7.07;;;;;;;-1.43;78.62;92679.27;1824426;77;21348;-79
2021/01/12 09:34:22;;;;;;;9.43;5.30;;;;;;;-1.32;77.96;92686.45;1805079;79;21115;-79
2021/01/12 09:36:50;;;;;;;7.03;4.70;;;;;;;-1.19;77.59;92689.09;1837448;78;21129;-79
2021/01/12 09:39:18;;;;;;;8.57;5.60;;;;;;;-1.05;77.12;92686.83;1809128;79;21607;-78
2021/01/12 09:41:52;;;;;;;7.87;5.57;;;;;;;-0.95;76.80;92682.31;1839006;77;21094;-79
2021/01/12 09:44:19;;;;;;;7.13;4.87;;;;;;;-0.88;75.68;92677.17;1786709;79;21131;-79
2021/01/12 09:46:47;;;;;;;8.50;5.80;;;;;;;-0.83;75.52;92670.80;1835577;77;21227;-80
2021/01/12 09:49:14;;;;;;;5.20;4.27;;;;;;;-0.78;75.52;92667.34;1828337;77;21183;-77
2021/01/12 09:51:43;;;;;;;5.37;3.93;;;;;;;-0.72;74.77;92655.84;1793339;79;21642;-78
2021/01/12 09:54:11;;;;;;;6.73;4.97;;;;;;;-0.66;74.91;92654.48;1804442;79;21713;-79
2021/01/12 09:56:39;;;;;;;5.08;3.52;;;;;;;-0.57;74.81;92654.30;1802842;79;21377;-79
2021/01/12 09:59:06;;;;;;;4.15;2.87;;;;;;;-0.46;74.88;92641.22;1801123;79;21209;-80
2021/01/12 10:01:34;;;;;;;4.50;3.37;;;;;;;-0.41;74.01;92644.98;1801379;79;21624;-80
2021/01/12 10:04:02;;;;;;;5.90;3.70;;;;;;;-0.39;73.75;92632.05;1800965;79;21196;-80
2021/01/12 10:06:33;;;;;;;4.75;4.00;;;;;;;-0.38;73.57;92635.69;1800215;79;21256;-81
2021/01/12 10:09:01;;;;;;;6.83;4.53;;;;;;;-0.34;73.73;92621.89;1800241;79;21430;-79
2021/01/12 10:11:28;;;;;;;6.08;4.37;;;;;;;-0.26;73.51;92618.26;1823633;77;21407;-79
2021/01/12 10:13:55;;;;;;;6.50;4.30;;;;;;;-0.17;73.58;92621.30;1776392;79;21166;-80
2021/01/12 10:16:24;;;;;;;8.03;5.47;;;;;;;-0.11;73.31;92617.25;1797936;79;21203;-79
2021/01/12 10:18:52;;;;;;;8.68;4.83;;;;;;;-0.07;72.58;92605.52;1789148;80;21176;-79
2021/01/12 10:21:19;;;;;;;5.33;3.98;;;;;;;-0.06;72.30;92607.63;1827582;78;21195;-81
2021/01/12 10:23:48;;;;;;;7.78;5.33;;;;;;;-0.08;72.63;92599.16;1791392;78;21191;-79
2021/01/12 10:26:19;;;;;;;7.22;4.92;;;;;;;-0.07;72.39;92591.38;1839100;77;21162;-80
2021/01/12 10:28:48;;;;;;;9.93;6.20;;;;;;;-0.09;72.92;92600.30;1846965;77;21161;-78
2021/01/12 10:31:18;;;;;;;8.58;5.17;;;;;;;-0.10;72.63;92590.17;1798123;79;21156;-78
2021/01/12 10:33:51;;;;;;;14.07;8.18;;;;;;;-0.11;72.26;92591.30;1838203;78;22199;-78
2021/01/12 10:36:20;;;;;;;4.67;2.83;;;;;;;-0.13;72.11;92578.84;1799178;78;21726;-77
2021/01/12 10:38:49;;;;;;;3.87;2.75;;;;;;;-0.22;71.24;92578.27;1775768;79;21192;-80
2021/01/12 10:41:16;;;;;;;4.10;2.42;;;;;;;-0.33;71.66;92571.34;1765164;80;21188;-81
2021/01/12 10:43:44;;;;;;;3.70;2.62;;;;;;;-0.41;71.87;92568.30;1807770;78;21154;-77
2021/01/12 10:46:16;;;;;;;2.80;2.02;;;;;;;-0.44;72.03;92569.55;1819142;78;21254;-80
2021/01/12 10:48:47;;;;;;;4.40;3.42;;;;;;;-0.49;72.57;92559.88;1796249;77;21199;-78
2021/01/12 10:51:20;;;;;;;11.57;6.62;;;;;;;-0.51;72.63;92565.58;1862203;76;21140;-79
2021/01/12 10:53:48;;;;;;;4.47;3.22;;;;;;;-0.54;72.35;92560.16;1860061;76;21155;-80
2021/01/12 10:56:16;;;;;;;4.62;2.90;;;;;;;-0.59;72.38;92565.77;1823544;77;21697;-79
2021/01/12 10:58:44;;;;;;;4.10;3.07;;;;;;;-0.65;72.58;92565.23;1787370;78;21951;-79
2021/01/12 11:01:17;;;;;;;5.28;3.22;;;;;;;-0.68;73.15;92543.80;1853203;77;21626;-80
2021/01/12 11:03:45;;;;;;;6.80;3.80;;;;;;;-0.67;73.47;92547.47;1833760;77;21199;-78
2021/01/12 11:06:17;;;;;;;6.42;4.55;;;;;;;-0.63;73.51;92543.55;1809471;77;21515;-79
2021/01/12 11:08:46;;;;;;;7.58;4.78;;;;;;;-0.65;72.92;92531.86;1810818;79;21155;-79
2021/01/12 11:11:20;;;;;;;5.22;3.77;;;;;;;-0.68;73.15;92538.45;1802822;78;21194;-79
2021/01/12 11:13:48;;;;;;;3.67;3.00;;;;;;;-0.71;73.53;92535.93;1778055;79;21188;-79
2021/01/12 11:16:18;;;;;;;4.50;3.40;;;;;;;-0.77;73.67;92540.74;1791618;79;21159;-80
2021/01/12 11:18:46;;;;;;;4.97;3.87;;;;;;;-0.81;73.32;92547.89;1798485;79;21444;-79
2021/01/12 11:21:18;;;;;;;5.62;4.53;;;;;;;-0.84;73.59;92534.45;1822923;78;21174;-82
2021/01/12 11:23:46;;;;;;;6.97;4.23;;;;;;;-0.85;74.27;92518.23;1817242;77;22636;-80
2021/01/12 11:26:14;;;;;;;5.10;4.00;;;;;;;-0.84;74.15;92525.12;1786809;79;21199;-82
2021/01/12 11:28:42;;;;;;;4.62;3.33;;;;;;;-0.86;74.28;92516.13;1799610;77;21167;-80
2021/01/12 11:31:11;;;;;;;3.47;3.12;;;;;;;-0.83;74.22;92511.98;1834924;78;21470;-78
2021/01/12 11:33:38;;;;;;;4.35;2.95;;;;;;;-0.80;74.06;92504.62;1815765;77;21233;-78
2021/01/12 11:36:07;;;;;;;3.55;2.80;;;;;;;-0.78;74.02;92493.05;1821727;78;21371;-79